Pagina principale
METAR-TAF:

METAR-TAF

Aeroporti :

Arnhem, Paesi Bassi

latitudine: 52-04N, longitudine: 005-53E, altezza: 48 m

Osservazione

Il bollettino è stato emesso 22 minuti fa, alle 02:55 UTC
Vento 6 kt da sud-ovest, variando fra sud e ovest
Temperature 3°C
Umidità 93%
Pressione 1022 hPa
Visibilità 10 km o più
Cielo coperto ad un'altezza di 10000 ft

METAR: EHDL 240255Z AUTO 23006KT 180V280 9999 OVC100 03/02 Q1022 BLU

Ora: 04:17 (03:17 UTC)


TAF: mancante

Osservazioni e previsioni meteorologiche di più di 4000 aeroporti (messaggi METAR e TAF).

Le stazioni disponibili sono rappresentate dai dischi gialli e rossi sulla carta.

Puntare il mouse per vedere il nome della stazione.

Clicca sopra per visualizzare le osservazioni e previsioni meteorologiche.

Per cambiare la mappa : fare clic sui pulsanti verdi con una croce nera per ingrandire, il pulsante verde con un trattino per diminuire, o sulla freccia verde per le mappe adiacenti.


METAR-TAF: